sensor_id;sensor_type;location;lat;lon;timestamp;temperature;humidity
23801;DHT22;12081;48.614;10.226;2022-12-07T00:01:36;3.00;99.90
23801;DHT22;12081;48.614;10.226;2022-12-07T00:04:22;1.30;99.90
23801;DHT22;12081;48.614;10.226;2022-12-07T00:07:06;1.30;99.90
23801;DHT22;12081;48.614;10.226;2022-12-07T00:09:51;1.30;99.90
23801;DHT22;12081;48.614;10.226;2022-12-07T00:12:35;1.30;99.90
23801;DHT22;12081;48.614;10.226;2022-12-07T00:15:20;1.20;99.90
23801;DHT22;12081;48.614;10.226;2022-12-07T00:21:46;1.20;99.90
23801;DHT22;12081;48.614;10.226;2022-12-07T00:24:30;1.20;99.90
23801;DHT22;12081;48.614;10.226;2022-12-07T00:27:14;1.20;99.90
23801;DHT22;12081;48.614;10.226;2022-12-07T00:29:59;1.20;99.90
23801;DHT22;12081;48.614;10.226;2022-12-07T00:32:43;1.20;99.90
23801;DHT22;12081;48.614;10.226;2022-12-07T00:35:28;1.20;99.90
23801;DHT22;12081;48.614;10.226;2022-12-07T00:38:12;1.30;99.90
23801;DHT22;12081;48.614;10.226;2022-12-07T00:40:58;1.20;99.90
23801;DHT22;12081;48.614;10.226;2022-12-07T00:43:44;1.30;99.90
23801;DHT22;12081;48.614;10.226;2022-12-07T00:46:30;1.30;99.90
23801;DHT22;12081;48.614;10.226;2022-12-07T00:49:14;1.30;99.90
23801;DHT22;12081;48.614;10.226;2022-12-07T00:51:59;1.30;99.90
23801;DHT22;12081;48.614;10.226;2022-12-07T00:54:44;1.30;99.90
23801;DHT22;12081;48.614;10.226;2022-12-07T00:57:30;1.30;99.90
23801;DHT22;12081;48.614;10.226;2022-12-07T01:00:15;1.30;99.90
23801;DHT22;12081;48.614;10.226;2022-12-07T01:03:00;1.20;99.90
23801;DHT22;12081;48.614;10.226;2022-12-07T01:05:52;1.20;99.90
23801;DHT22;12081;48.614;10.226;2022-12-07T01:08:37;1.30;99.90
23801;DHT22;12081;48.614;10.226;2022-12-07T01:11:24;1.30;99.90
23801;DHT22;12081;48.614;10.226;2022-12-07T01:14:08;1.30;99.90
23801;DHT22;12081;48.614;10.226;2022-12-07T01:16:53;1.20;99.90
23801;DHT22;12081;48.614;10.226;2022-12-07T01:19:37;1.20;99.90
23801;DHT22;12081;48.614;10.226;2022-12-07T01:22:22;1.20;99.90
23801;DHT22;12081;48.614;10.226;2022-12-07T01:25:07;1.30;99.90
23801;DHT22;12081;48.614;10.226;2022-12-07T01:27:52;1.20;99.90
23801;DHT22;12081;48.614;10.226;2022-12-07T01:30:37;1.20;99.90
23801;DHT22;12081;48.614;10.226;2022-12-07T01:33:22;1.10;99.90
23801;DHT22;12081;48.614;10.226;2022-12-07T01:36:26;1.20;99.90
23801;DHT22;12081;48.614;10.226;2022-12-07T01:39:11;1.20;99.90
23801;DHT22;12081;48.614;10.226;2022-12-07T01:41:56;1.20;99.90
23801;DHT22;12081;48.614;10.226;2022-12-07T01:47:59;1.20;99.90
23801;DHT22;12081;48.614;10.226;2022-12-07T01:50:45;1.20;99.90
23801;DHT22;12081;48.614;10.226;2022-12-07T01:53:32;1.20;99.90
23801;DHT22;12081;48.614;10.226;2022-12-07T01:56:22;1.20;99.90
23801;DHT22;12081;48.614;10.226;2022-12-07T01:59:08;1.20;99.90
23801;DHT22;12081;48.614;10.226;2022-12-07T02:01:54;1.20;99.90
23801;DHT22;12081;48.614;10.226;2022-12-07T02:04:39;1.20;99.90
23801;DHT22;12081;48.614;10.226;2022-12-07T02:07:25;1.20;99.90
23801;DHT22;12081;48.614;10.226;2022-12-07T02:10:20;1.20;99.90
23801;DHT22;12081;48.614;10.226;2022-12-07T02:28:28;1.20;99.90
23801;DHT22;12081;48.614;10.226;2022-12-07T02:31:18;1.20;99.90
23801;DHT22;12081;48.614;10.226;2022-12-07T02:34:36;1.20;99.90
23801;DHT22;12081;48.614;10.226;2022-12-07T02:37:41;1.20;99.90
23801;DHT22;12081;48.614;10.226;2022-12-07T02:41:02;1.20;99.90
23801;DHT22;12081;48.614;10.226;2022-12-07T02:44:03;1.10;99.90
23801;DHT22;12081;48.614;10.226;2022-12-07T02:46:57;1.60;99.90
23801;DHT22;12081;48.614;10.226;2022-12-07T02:49:43;1.10;99.90
23801;DHT22;12081;48.614;10.226;2022-12-07T02:52:28;1.10;99.90
23801;DHT22;12081;48.614;10.226;2022-12-07T02:55:13;1.10;99.90
23801;DHT22;12081;48.614;10.226;2022-12-07T02:58:14;1.10;99.90
23801;DHT22;12081;48.614;10.226;2022-12-07T03:04:02;2.40;99.90
23801;DHT22;12081;48.614;10.226;2022-12-07T03:06:54;2.70;99.90
23801;DHT22;12081;48.614;10.226;2022-12-07T03:10:01;2.60;99.90
23801;DHT22;12081;48.614;10.226;2022-12-07T03:12:57;3.10;99.90
23801;DHT22;12081;48.614;10.226;2022-12-07T03:16:09;3.20;99.90
23801;DHT22;12081;48.614;10.226;2022-12-07T03:19:22;1.40;99.90
23801;DHT22;12081;48.614;10.226;2022-12-07T03:22:11;2.40;99.90
23801;DHT22;12081;48.614;10.226;2022-12-07T03:24:59;2.90;99.90
23801;DHT22;12081;48.614;10.226;2022-12-07T03:27:57;1.30;99.90
23801;DHT22;12081;48.614;10.226;2022-12-07T03:30:47;2.70;99.90
23801;DHT22;12081;48.614;10.226;2022-12-07T03:33:41;2.90;99.90
23801;DHT22;12081;48.614;10.226;2022-12-07T03:39:29;2.30;99.90
23801;DHT22;12081;48.614;10.226;2022-12-07T03:42:15;1.20;99.90
23801;DHT22;12081;48.614;10.226;2022-12-07T03:45:02;2.80;99.90
23801;DHT22;12081;48.614;10.226;2022-12-07T03:48:07;1.10;99.90
23801;DHT22;12081;48.614;10.226;2022-12-07T03:51:20;1.00;99.90
23801;DHT22;12081;48.614;10.226;2022-12-07T03:54:14;1.00;99.90
23801;DHT22;12081;48.614;10.226;2022-12-07T03:57:02;1.00;99.90
23801;DHT22;12081;48.614;10.226;2022-12-07T03:59:46;1.80;99.90
23801;DHT22;12081;48.614;10.226;2022-12-07T04:02:32;2.20;99.90
23801;DHT22;12081;48.614;10.226;2022-12-07T04:05:16;1.00;99.90
23801;DHT22;12081;48.614;10.226;2022-12-07T04:08:00;1.00;99.90
23801;DHT22;12081;48.614;10.226;2022-12-07T04:10:44;2.60;99.90
23801;DHT22;12081;48.614;10.226;2022-12-07T04:13:29;2.50;99.90
23801;DHT22;12081;48.614;10.226;2022-12-07T04:16:13;2.40;99.90
23801;DHT22;12081;48.614;10.226;2022-12-07T04:18:57;0.20;99.90
23801;DHT22;12081;48.614;10.226;2022-12-07T04:21:41;1.10;99.90
23801;DHT22;12081;48.614;10.226;2022-12-07T04:24:26;2.40;99.90
23801;DHT22;12081;48.614;10.226;2022-12-07T04:27:10;1.00;99.90
23801;DHT22;12081;48.614;10.226;2022-12-07T04:29:55;2.50;99.90
23801;DHT22;12081;48.614;10.226;2022-12-07T04:32:39;2.20;99.90
23801;DHT22;12081;48.614;10.226;2022-12-07T04:35:23;1.50;99.90
23801;DHT22;12081;48.614;10.226;2022-12-07T04:38:07;2.70;99.90
23801;DHT22;12081;48.614;10.226;2022-12-07T04:40:51;1.60;99.90
23801;DHT22;12081;48.614;10.226;2022-12-07T04:43:35;2.30;99.90
23801;DHT22;12081;48.614;10.226;2022-12-07T04:46:20;1.10;99.90
23801;DHT22;12081;48.614;10.226;2022-12-07T04:49:04;2.60;99.90
23801;DHT22;12081;48.614;10.226;2022-12-07T04:51:48;2.40;99.90
23801;DHT22;12081;48.614;10.226;2022-12-07T04:54:32;2.10;99.90
23801;DHT22;12081;48.614;10.226;2022-12-07T04:57:16;1.30;99.90
23801;DHT22;12081;48.614;10.226;2022-12-07T05:00:00;1.90;99.90
23801;DHT22;12081;48.614;10.226;2022-12-07T05:02:44;2.60;99.90
23801;DHT22;12081;48.614;10.226;2022-12-07T05:05:29;2.60;99.90
23801;DHT22;12081;48.614;10.226;2022-12-07T05:08:13;2.40;99.90
23801;DHT22;12081;48.614;10.226;2022-12-07T05:10:57;2.10;99.90
23801;DHT22;12081;48.614;10.226;2022-12-07T05:13:41;1.80;99.90
23801;DHT22;12081;48.614;10.226;2022-12-07T05:16:54;2.80;99.90
23801;DHT22;12081;48.614;10.226;2022-12-07T05:19:38;1.00;99.90
23801;DHT22;12081;48.614;10.226;2022-12-07T05:22:22;2.30;99.90
23801;DHT22;12081;48.614;10.226;2022-12-07T05:25:07;1.00;99.90
23801;DHT22;12081;48.614;10.226;2022-12-07T05:27:51;1.00;99.90
23801;DHT22;12081;48.614;10.226;2022-12-07T05:30:35;2.50;99.90
23801;DHT22;12081;48.614;10.226;2022-12-07T05:33:19;2.00;99.90
23801;DHT22;12081;48.614;10.226;2022-12-07T05:36:03;2.20;99.90
23801;DHT22;12081;48.614;10.226;2022-12-07T05:38:49;1.00;99.90
23801;DHT22;12081;48.614;10.226;2022-12-07T05:41:34;2.70;99.90
23801;DHT22;12081;48.614;10.226;2022-12-07T05:44:38;1.50;99.90
23801;DHT22;12081;48.614;10.226;2022-12-07T05:47:22;2.20;99.90
23801;DHT22;12081;48.614;10.226;2022-12-07T05:50:07;-0.80;99.90
23801;DHT22;12081;48.614;10.226;2022-12-07T05:52:51;0.70;99.90
23801;DHT22;12081;48.614;10.226;2022-12-07T05:55:35;2.00;99.90
23801;DHT22;12081;48.614;10.226;2022-12-07T05:58:19;2.00;99.90
23801;DHT22;12081;48.614;10.226;2022-12-07T06:01:22;2.00;99.90
23801;DHT22;12081;48.614;10.226;2022-12-07T06:04:06;1.40;99.90
23801;DHT22;12081;48.614;10.226;2022-12-07T06:06:50;1.90;99.90
23801;DHT22;12081;48.614;10.226;2022-12-07T06:09:35;2.20;99.90
23801;DHT22;12081;48.614;10.226;2022-12-07T06:12:19;1.90;99.90
23801;DHT22;12081;48.614;10.226;2022-12-07T06:15:19;0.60;99.90
23801;DHT22;12081;48.614;10.226;2022-12-07T06:18:03;1.70;99.90
23801;DHT22;12081;48.614;10.226;2022-12-07T06:20:48;0.40;99.90
23801;DHT22;12081;48.614;10.226;2022-12-07T06:23:32;0.30;99.90
23801;DHT22;12081;48.614;10.226;2022-12-07T06:26:16;0.30;99.90
23801;DHT22;12081;48.614;10.226;2022-12-07T06:29:00;0.30;99.90
23801;DHT22;12081;48.614;10.226;2022-12-07T06:31:48;0.30;99.90
23801;DHT22;12081;48.614;10.226;2022-12-07T06:34:32;2.10;99.90
23801;DHT22;12081;48.614;10.226;2022-12-07T06:37:16;0.30;99.90
23801;DHT22;12081;48.614;10.226;2022-12-07T06:40:00;0.40;99.90
23801;DHT22;12081;48.614;10.226;2022-12-07T06:42:45;0.40;99.90
23801;DHT22;12081;48.614;10.226;2022-12-07T06:45:29;0.40;99.90
23801;DHT22;12081;48.614;10.226;2022-12-07T06:48:13;0.30;99.90
23801;DHT22;12081;48.614;10.226;2022-12-07T06:50:58;0.60;99.90
23801;DHT22;12081;48.614;10.226;2022-12-07T06:53:42;0.40;99.90
23801;DHT22;12081;48.614;10.226;2022-12-07T06:56:26;0.50;99.90
23801;DHT22;12081;48.614;10.226;2022-12-07T06:59:10;0.50;99.90
23801;DHT22;12081;48.614;10.226;2022-12-07T07:01:54;0.60;99.90
23801;DHT22;12081;48.614;10.226;2022-12-07T07:04:38;0.50;99.90
23801;DHT22;12081;48.614;10.226;2022-12-07T07:07:23;0.50;99.90
23801;DHT22;12081;48.614;10.226;2022-12-07T07:10:07;0.40;99.90
23801;DHT22;12081;48.614;10.226;2022-12-07T07:12:51;0.40;99.90
23801;DHT22;12081;48.614;10.226;2022-12-07T07:15:37;0.40;99.90
23801;DHT22;12081;48.614;10.226;2022-12-07T07:18:22;0.50;99.90
23801;DHT22;12081;48.614;10.226;2022-12-07T07:21:06;0.50;99.90
23801;DHT22;12081;48.614;10.226;2022-12-07T07:23:50;0.60;99.90
23801;DHT22;12081;48.614;10.226;2022-12-07T07:26:33;0.60;99.90
23801;DHT22;12081;48.614;10.226;2022-12-07T07:29:17;0.70;99.90
23801;DHT22;12081;48.614;10.226;2022-12-07T07:32:01;0.80;99.90
23801;DHT22;12081;48.614;10.226;2022-12-07T07:34:45;0.80;99.90
23801;DHT22;12081;48.614;10.226;2022-12-07T07:37:29;0.90;99.90
23801;DHT22;12081;48.614;10.226;2022-12-07T07:40:14;0.90;99.90
23801;DHT22;12081;48.614;10.226;2022-12-07T07:42:58;1.00;99.90
23801;DHT22;12081;48.614;10.226;2022-12-07T07:45:42;1.00;99.90
23801;DHT22;12081;48.614;10.226;2022-12-07T07:48:27;1.10;99.90
23801;DHT22;12081;48.614;10.226;2022-12-07T07:51:11;1.10;99.90
23801;DHT22;12081;48.614;10.226;2022-12-07T07:53:55;1.20;99.90
23801;DHT22;12081;48.614;10.226;2022-12-07T07:56:39;1.30;99.90
23801;DHT22;12081;48.614;10.226;2022-12-07T07:59:24;1.30;99.90
23801;DHT22;12081;48.614;10.226;2022-12-07T08:02:14;1.40;99.90
23801;DHT22;12081;48.614;10.226;2022-12-07T08:04:59;1.40;99.90
23801;DHT22;12081;48.614;10.226;2022-12-07T08:07:43;1.40;99.90
23801;DHT22;12081;48.614;10.226;2022-12-07T08:10:27;1.50;99.90
23801;DHT22;12081;48.614;10.226;2022-12-07T08:13:12;1.50;99.90
23801;DHT22;12081;48.614;10.226;2022-12-07T08:15:58;1.60;99.90
23801;DHT22;12081;48.614;10.226;2022-12-07T08:18:42;1.60;99.90
23801;DHT22;12081;48.614;10.226;2022-12-07T08:21:27;1.70;99.90
23801;DHT22;12081;48.614;10.226;2022-12-07T08:24:11;1.60;99.90
23801;DHT22;12081;48.614;10.226;2022-12-07T08:26:55;1.70;99.90
23801;DHT22;12081;48.614;10.226;2022-12-07T08:29:39;1.70;99.90
23801;DHT22;12081;48.614;10.226;2022-12-07T08:32:23;1.70;99.90
23801;DHT22;12081;48.614;10.226;2022-12-07T08:35:07;1.80;99.90
23801;DHT22;12081;48.614;10.226;2022-12-07T08:37:52;1.80;99.90
23801;DHT22;12081;48.614;10.226;2022-12-07T08:40:36;1.90;99.90
23801;DHT22;12081;48.614;10.226;2022-12-07T08:43:20;2.00;99.90
23801;DHT22;12081;48.614;10.226;2022-12-07T08:46:21;2.00;99.90
23801;DHT22;12081;48.614;10.226;2022-12-07T08:49:18;2.00;99.90
23801;DHT22;12081;48.614;10.226;2022-12-07T08:52:04;2.00;99.90
23801;DHT22;12081;48.614;10.226;2022-12-07T08:54:49;2.10;99.90
23801;DHT22;12081;48.614;10.226;2022-12-07T08:57:34;2.10;99.90
23801;DHT22;12081;48.614;10.226;2022-12-07T09:00:19;2.10;99.90
23801;DHT22;12081;48.614;10.226;2022-12-07T09:03:03;2.10;99.90
23801;DHT22;12081;48.614;10.226;2022-12-07T09:05:48;2.20;99.90
23801;DHT22;12081;48.614;10.226;2022-12-07T09:08:36;2.20;99.90
23801;DHT22;12081;48.614;10.226;2022-12-07T09:11:22;2.30;99.90
23801;DHT22;12081;48.614;10.226;2022-12-07T09:14:06;2.30;99.90
23801;DHT22;12081;48.614;10.226;2022-12-07T09:16:50;3.40;99.90
23801;DHT22;12081;48.614;10.226;2022-12-07T09:19:34;2.40;99.90
23801;DHT22;12081;48.614;10.226;2022-12-07T09:22:18;2.50;99.90
23801;DHT22;12081;48.614;10.226;2022-12-07T09:25:03;2.50;99.90
23801;DHT22;12081;48.614;10.226;2022-12-07T09:27:48;2.70;99.90
23801;DHT22;12081;48.614;10.226;2022-12-07T09:30:32;2.60;99.90
23801;DHT22;12081;48.614;10.226;2022-12-07T09:33:16;2.70;99.90
23801;DHT22;12081;48.614;10.226;2022-12-07T09:36:00;2.70;99.90
23801;DHT22;12081;48.614;10.226;2022-12-07T09:38:44;2.80;99.90
23801;DHT22;12081;48.614;10.226;2022-12-07T09:41:29;2.80;99.90
23801;DHT22;12081;48.614;10.226;2022-12-07T09:44:23;2.80;99.90
23801;DHT22;12081;48.614;10.226;2022-12-07T09:47:09;2.70;99.90
23801;DHT22;12081;48.614;10.226;2022-12-07T09:50:04;2.80;99.90
23801;DHT22;12081;48.614;10.226;2022-12-07T09:52:50;3.00;99.90
23801;DHT22;12081;48.614;10.226;2022-12-07T09:55:36;3.00;99.90
23801;DHT22;12081;48.614;10.226;2022-12-07T09:58:26;3.00;99.90
23801;DHT22;12081;48.614;10.226;2022-12-07T10:01:19;3.10;99.90
23801;DHT22;12081;48.614;10.226;2022-12-07T10:04:15;3.10;99.90
23801;DHT22;12081;48.614;10.226;2022-12-07T10:07:01;3.00;99.90
23801;DHT22;12081;48.614;10.226;2022-12-07T10:09:45;3.10;99.90
23801;DHT22;12081;48.614;10.226;2022-12-07T10:12:29;3.00;99.90
23801;DHT22;12081;48.614;10.226;2022-12-07T10:15:13;3.10;99.90
23801;DHT22;12081;48.614;10.226;2022-12-07T10:17:58;3.00;99.90
23801;DHT22;12081;48.614;10.226;2022-12-07T10:20:47;3.00;99.90
23801;DHT22;12081;48.614;10.226;2022-12-07T10:23:32;3.10;99.90
23801;DHT22;12081;48.614;10.226;2022-12-07T10:26:26;3.10;99.90
23801;DHT22;12081;48.614;10.226;2022-12-07T10:29:24;3.10;99.90
23801;DHT22;12081;48.614;10.226;2022-12-07T10:35:22;3.40;99.90
23801;DHT22;12081;48.614;10.226;2022-12-07T10:38:16;3.50;99.90
23801;DHT22;12081;48.614;10.226;2022-12-07T10:41:07;3.50;99.90
23801;DHT22;12081;48.614;10.226;2022-12-07T10:43:56;3.60;99.90
23801;DHT22;12081;48.614;10.226;2022-12-07T10:46:59;3.60;99.90
23801;DHT22;12081;48.614;10.226;2022-12-07T10:50:10;3.60;99.90
23801;DHT22;12081;48.614;10.226;2022-12-07T10:56:38;3.70;99.90
23801;DHT22;12081;48.614;10.226;2022-12-07T11:12:13;4.00;99.90
23801;DHT22;12081;48.614;10.226;2022-12-07T11:15:15;4.10;99.90
23801;DHT22;12081;48.614;10.226;2022-12-07T11:19:32;4.10;99.90
23801;DHT22;12081;48.614;10.226;2022-12-07T11:21:51;4.20;99.90
23801;DHT22;12081;48.614;10.226;2022-12-07T11:34:39;4.70;99.90
23801;DHT22;12081;48.614;10.226;2022-12-07T11:37:09;4.70;99.90
23801;DHT22;12081;48.614;10.226;2022-12-07T11:40:02;4.50;99.90
23801;DHT22;12081;48.614;10.226;2022-12-07T11:42:59;4.60;99.90
23801;DHT22;12081;48.614;10.226;2022-12-07T11:45:51;4.50;99.90
23801;DHT22;12081;48.614;10.226;2022-12-07T11:49:02;4.40;99.90
23801;DHT22;12081;48.614;10.226;2022-12-07T11:51:50;4.40;99.90
23801;DHT22;12081;48.614;10.226;2022-12-07T11:54:40;4.40;99.90
23801;DHT22;12081;48.614;10.226;2022-12-07T11:57:44;4.40;99.90
23801;DHT22;12081;48.614;10.226;2022-12-07T12:00:30;5.50;99.90
23801;DHT22;12081;48.614;10.226;2022-12-07T12:03:30;5.80;99.90
23801;DHT22;12081;48.614;10.226;2022-12-07T12:06:15;6.60;99.90
23801;DHT22;12081;48.614;10.226;2022-12-07T12:09:15;5.90;99.90
23801;DHT22;12081;48.614;10.226;2022-12-07T12:15:36;4.30;99.90
23801;DHT22;12081;48.614;10.226;2022-12-07T12:22:09;4.30;99.90
23801;DHT22;12081;48.614;10.226;2022-12-07T12:24:54;6.10;99.90
23801;DHT22;12081;48.614;10.226;2022-12-07T12:27:39;2.40;99.90
23801;DHT22;12081;48.614;10.226;2022-12-07T12:30:30;4.30;99.90
23801;DHT22;12081;48.614;10.226;2022-12-07T12:33:25;4.30;99.90
23801;DHT22;12081;48.614;10.226;2022-12-07T12:36:20;4.00;99.90
23801;DHT22;12081;48.614;10.226;2022-12-07T12:39:16;4.10;99.90
23801;DHT22;12081;48.614;10.226;2022-12-07T12:42:02;4.00;99.90
23801;DHT22;12081;48.614;10.226;2022-12-07T12:48:28;4.00;99.90
23801;DHT22;12081;48.614;10.226;2022-12-07T12:57:26;4.20;99.90
23801;DHT22;12081;48.614;10.226;2022-12-07T13:00:22;4.10;99.90
23801;DHT22;12081;48.614;10.226;2022-12-07T13:03:24;3.90;99.90
23801;DHT22;12081;48.614;10.226;2022-12-07T13:06:32;4.10;99.90
23801;DHT22;12081;48.614;10.226;2022-12-07T13:09:28;4.00;99.90
23801;DHT22;12081;48.614;10.226;2022-12-07T13:12:16;4.10;99.90
23801;DHT22;12081;48.614;10.226;2022-12-07T13:15:00;4.20;99.90
23801;DHT22;12081;48.614;10.226;2022-12-07T13:17:56;4.30;99.90
23801;DHT22;12081;48.614;10.226;2022-12-07T13:20:47;4.30;99.90
23801;DHT22;12081;48.614;10.226;2022-12-07T13:29:15;4.20;99.90
23801;DHT22;12081;48.614;10.226;2022-12-07T13:31:59;4.10;99.90
23801;DHT22;12081;48.614;10.226;2022-12-07T13:42:35;4.20;99.90
23801;DHT22;12081;48.614;10.226;2022-12-07T13:45:28;5.10;99.90
23801;DHT22;12081;48.614;10.226;2022-12-07T13:49:00;5.20;99.90
23801;DHT22;12081;48.614;10.226;2022-12-07T13:51:44;4.70;99.90
23801;DHT22;12081;48.614;10.226;2022-12-07T13:54:30;4.20;99.90
23801;DHT22;12081;48.614;10.226;2022-12-07T13:57:16;4.20;99.90
23801;DHT22;12081;48.614;10.226;2022-12-07T14:00:06;5.40;99.90
23801;DHT22;12081;48.614;10.226;2022-12-07T14:02:59;4.20;99.90
23801;DHT22;12081;48.614;10.226;2022-12-07T14:05:44;4.20;99.90
23801;DHT22;12081;48.614;10.226;2022-12-07T14:08:30;4.10;99.90
23801;DHT22;12081;48.614;10.226;2022-12-07T14:11:18;4.00;99.90
23801;DHT22;12081;48.614;10.226;2022-12-07T14:14:04;4.00;99.90
23801;DHT22;12081;48.614;10.226;2022-12-07T14:17:15;3.90;99.90
23801;DHT22;12081;48.614;10.226;2022-12-07T14:20:01;3.90;99.90
23801;DHT22;12081;48.614;10.226;2022-12-07T14:22:55;3.80;99.90
23801;DHT22;12081;48.614;10.226;2022-12-07T14:25:47;3.80;99.90
23801;DHT22;12081;48.614;10.226;2022-12-07T14:28:35;3.70;99.90
23801;DHT22;12081;48.614;10.226;2022-12-07T14:31:24;3.60;99.90
23801;DHT22;12081;48.614;10.226;2022-12-07T14:34:12;3.60;99.90
23801;DHT22;12081;48.614;10.226;2022-12-07T14:36:57;3.50;99.90
23801;DHT22;12081;48.614;10.226;2022-12-07T14:39:41;3.40;99.90
23801;DHT22;12081;48.614;10.226;2022-12-07T14:42:28;3.40;99.90
23801;DHT22;12081;48.614;10.226;2022-12-07T14:45:15;3.30;99.90
23801;DHT22;12081;48.614;10.226;2022-12-07T14:48:05;3.30;99.90
23801;DHT22;12081;48.614;10.226;2022-12-07T14:50:51;3.20;99.90
23801;DHT22;12081;48.614;10.226;2022-12-07T14:53:40;3.20;99.90
23801;DHT22;12081;48.614;10.226;2022-12-07T14:56:25;3.10;99.90
23801;DHT22;12081;48.614;10.226;2022-12-07T14:59:10;3.00;99.90
23801;DHT22;12081;48.614;10.226;2022-12-07T15:01:54;3.00;99.90
23801;DHT22;12081;48.614;10.226;2022-12-07T15:04:39;2.90;99.90
23801;DHT22;12081;48.614;10.226;2022-12-07T15:07:23;2.90;99.90
23801;DHT22;12081;48.614;10.226;2022-12-07T15:10:23;2.80;99.90
23801;DHT22;12081;48.614;10.226;2022-12-07T15:13:13;2.80;99.90
23801;DHT22;12081;48.614;10.226;2022-12-07T15:16:19;2.80;99.90
23801;DHT22;12081;48.614;10.226;2022-12-07T15:19:04;2.70;99.90
23801;DHT22;12081;48.614;10.226;2022-12-07T15:21:48;2.70;99.90
23801;DHT22;12081;48.614;10.226;2022-12-07T15:24:33;2.70;99.90
23801;DHT22;12081;48.614;10.226;2022-12-07T15:27:18;2.60;99.90
23801;DHT22;12081;48.614;10.226;2022-12-07T15:30:03;2.60;99.90
23801;DHT22;12081;48.614;10.226;2022-12-07T15:32:51;2.50;99.90
23801;DHT22;12081;48.614;10.226;2022-12-07T15:35:42;2.50;99.90
23801;DHT22;12081;48.614;10.226;2022-12-07T15:38:26;2.50;99.90
23801;DHT22;12081;48.614;10.226;2022-12-07T15:41:12;2.40;99.90
23801;DHT22;12081;48.614;10.226;2022-12-07T15:43:56;2.40;99.90
23801;DHT22;12081;48.614;10.226;2022-12-07T15:47:15;2.40;99.90
23801;DHT22;12081;48.614;10.226;2022-12-07T15:50:00;2.40;99.90
23801;DHT22;12081;48.614;10.226;2022-12-07T15:52:44;2.30;99.90
23801;DHT22;12081;48.614;10.226;2022-12-07T15:55:28;2.30;99.90
23801;DHT22;12081;48.614;10.226;2022-12-07T15:58:12;2.30;99.90
23801;DHT22;12081;48.614;10.226;2022-12-07T16:00:56;2.20;99.90
23801;DHT22;12081;48.614;10.226;2022-12-07T16:03:41;2.20;99.90
23801;DHT22;12081;48.614;10.226;2022-12-07T16:06:25;2.20;99.90
23801;DHT22;12081;48.614;10.226;2022-12-07T16:09:10;2.20;99.90
23801;DHT22;12081;48.614;10.226;2022-12-07T16:11:55;2.10;99.90
23801;DHT22;12081;48.614;10.226;2022-12-07T16:15:02;2.10;99.90
23801;DHT22;12081;48.614;10.226;2022-12-07T16:17:51;2.00;99.90
23801;DHT22;12081;48.614;10.226;2022-12-07T16:20:35;3.30;99.90
23801;DHT22;12081;48.614;10.226;2022-12-07T16:23:20;3.50;99.90
23801;DHT22;12081;48.614;10.226;2022-12-07T16:26:10;3.90;99.90
23801;DHT22;12081;48.614;10.226;2022-12-07T16:28:55;2.00;99.90
23801;DHT22;12081;48.614;10.226;2022-12-07T16:31:40;4.10;99.90
23801;DHT22;12081;48.614;10.226;2022-12-07T16:34:30;4.00;99.90
23801;DHT22;12081;48.614;10.226;2022-12-07T16:37:15;3.00;99.90
23801;DHT22;12081;48.614;10.226;2022-12-07T16:39:59;3.60;99.90
23801;DHT22;12081;48.614;10.226;2022-12-07T16:42:43;4.00;99.90
23801;DHT22;12081;48.614;10.226;2022-12-07T16:45:27;3.90;99.90
23801;DHT22;12081;48.614;10.226;2022-12-07T16:48:12;3.80;99.90
23801;DHT22;12081;48.614;10.226;2022-12-07T16:50:57;3.60;99.90
23801;DHT22;12081;48.614;10.226;2022-12-07T16:53:42;1.80;99.90
23801;DHT22;12081;48.614;10.226;2022-12-07T16:56:26;3.60;99.90
23801;DHT22;12081;48.614;10.226;2022-12-07T16:59:13;1.20;99.90
23801;DHT22;12081;48.614;10.226;2022-12-07T17:01:57;3.80;99.90
23801;DHT22;12081;48.614;10.226;2022-12-07T17:04:41;3.30;99.90
23801;DHT22;12081;48.614;10.226;2022-12-07T17:07:26;3.20;99.90
23801;DHT22;12081;48.614;10.226;2022-12-07T17:10:10;3.60;99.90
23801;DHT22;12081;48.614;10.226;2022-12-07T17:12:55;2.80;99.90
23801;DHT22;12081;48.614;10.226;2022-12-07T17:15:39;3.20;99.90
23801;DHT22;12081;48.614;10.226;2022-12-07T17:18:31;2.80;99.90
23801;DHT22;12081;48.614;10.226;2022-12-07T17:21:16;2.80;99.90
23801;DHT22;12081;48.614;10.226;2022-12-07T17:24:00;3.20;99.90
23801;DHT22;12081;48.614;10.226;2022-12-07T17:26:46;2.50;99.90
23801;DHT22;12081;48.614;10.226;2022-12-07T17:29:31;3.20;99.90
23801;DHT22;12081;48.614;10.226;2022-12-07T17:32:15;2.50;99.90
23801;DHT22;12081;48.614;10.226;2022-12-07T17:34:59;3.40;99.90
23801;DHT22;12081;48.614;10.226;2022-12-07T17:37:44;3.30;99.90
23801;DHT22;12081;48.614;10.226;2022-12-07T17:40:28;3.00;99.90
23801;DHT22;12081;48.614;10.226;2022-12-07T17:43:12;3.40;99.90
23801;DHT22;12081;48.614;10.226;2022-12-07T17:45:56;3.20;99.90
23801;DHT22;12081;48.614;10.226;2022-12-07T17:48:41;3.00;99.90
23801;DHT22;12081;48.614;10.226;2022-12-07T17:51:25;2.10;99.90
23801;DHT22;12081;48.614;10.226;2022-12-07T17:54:29;3.20;99.90
23801;DHT22;12081;48.614;10.226;2022-12-07T17:57:13;2.80;99.90
23801;DHT22;12081;48.614;10.226;2022-12-07T17:59:57;1.20;99.90
23801;DHT22;12081;48.614;10.226;2022-12-07T18:02:41;1.30;99.90
23801;DHT22;12081;48.614;10.226;2022-12-07T18:05:25;1.40;99.90
23801;DHT22;12081;48.614;10.226;2022-12-07T18:08:09;1.40;99.90
23801;DHT22;12081;48.614;10.226;2022-12-07T18:10:59;1.40;99.90
23801;DHT22;12081;48.614;10.226;2022-12-07T18:13:44;1.40;99.90
23801;DHT22;12081;48.614;10.226;2022-12-07T18:16:30;1.40;99.90
23801;DHT22;12081;48.614;10.226;2022-12-07T18:19:16;1.50;99.90
23801;DHT22;12081;48.614;10.226;2022-12-07T18:22:00;1.50;99.90
23801;DHT22;12081;48.614;10.226;2022-12-07T18:24:44;1.50;99.90
23801;DHT22;12081;48.614;10.226;2022-12-07T18:27:28;1.40;99.90
23801;DHT22;12081;48.614;10.226;2022-12-07T18:30:12;1.40;99.90
23801;DHT22;12081;48.614;10.226;2022-12-07T18:32:58;1.40;99.90
23801;DHT22;12081;48.614;10.226;2022-12-07T18:35:42;1.40;99.90
23801;DHT22;12081;48.614;10.226;2022-12-07T18:38:27;1.50;99.90
23801;DHT22;12081;48.614;10.226;2022-12-07T18:41:12;1.50;99.90
23801;DHT22;12081;48.614;10.226;2022-12-07T18:43:57;1.50;99.90
23801;DHT22;12081;48.614;10.226;2022-12-07T18:46:41;1.50;99.90
23801;DHT22;12081;48.614;10.226;2022-12-07T18:49:25;1.50;99.90
23801;DHT22;12081;48.614;10.226;2022-12-07T18:52:09;1.40;99.90
23801;DHT22;12081;48.614;10.226;2022-12-07T18:54:54;1.40;99.90
23801;DHT22;12081;48.614;10.226;2022-12-07T18:57:37;1.40;99.90
23801;DHT22;12081;48.614;10.226;2022-12-07T19:00:23;1.40;99.90
23801;DHT22;12081;48.614;10.226;2022-12-07T19:03:08;1.40;99.90
23801;DHT22;12081;48.614;10.226;2022-12-07T19:05:52;1.40;99.90
23801;DHT22;12081;48.614;10.226;2022-12-07T19:08:39;1.40;99.90